Time;durP1;ratioP1;P1;durP2;ratioP2;P2;SDS_P1;SDS_P2;PMS_P1;PMS_P2;Temp;Humidity;BMP_temperature;BMP_pressure;BME280_temperature;BME280_humidity;BME280_pressure;Samples;Min_cycle;Max_cycle;Signal;HPM_P1;HPM_P2
2021/09/14 00:00:17;;;;;;;19.15;11.60;;;;;;;14.32;100.00;99973.48;1818852;78;21026;-77
2021/09/14 00:02:43;;;;;;;17.45;12.30;;;;;;;14.26;100.00;99961.45;1818935;78;21084;-79
2021/09/14 00:05:10;;;;;;;18.70;13.08;;;;;;;14.26;100.00;99968.51;1812682;78;21053;-75
2021/09/14 00:07:39;;;;;;;23.18;11.55;;;;;;;14.24;100.00;99970.38;1783660;80;21299;-77
2021/09/14 00:10:07;;;;;;;21.90;12.20;;;;;;;14.23;100.00;99969.53;1783719;80;21599;-78
2021/09/14 00:12:34;;;;;;;16.97;11.75;;;;;;;14.21;100.00;99974.53;1783719;80;21001;-76
2021/09/14 00:15:01;;;;;;;26.62;12.50;;;;;;;14.19;100.00;99974.61;1783831;80;21052;-77
2021/09/14 00:17:28;;;;;;;21.10;12.10;;;;;;;14.16;100.00;99973.94;1783875;80;21572;-79
2021/09/14 00:19:55;;;;;;;16.73;10.88;;;;;;;14.14;100.00;99970.52;1783823;80;21520;-78
2021/09/14 00:22:22;;;;;;;21.80;12.30;;;;;;;14.10;100.00;99966.31;1783630;80;21049;-77
2021/09/14 00:24:48;;;;;;;19.77;12.65;;;;;;;14.08;100.00;99968.19;1783782;80;21052;-78
2021/09/14 00:27:15;;;;;;;21.75;12.47;;;;;;;14.03;100.00;99965.79;1783640;80;21588;-77
2021/09/14 00:29:41;;;;;;;18.07;11.93;;;;;;;13.99;100.00;99969.56;1783714;80;21064;-76
2021/09/14 00:32:08;;;;;;;17.05;11.03;;;;;;;13.95;100.00;99964.89;1783681;80;22034;-77
2021/09/14 00:34:34;;;;;;;18.40;12.05;;;;;;;13.93;100.00;99972.05;1783824;80;21540;-77
2021/09/14 00:37:01;;;;;;;17.17;11.15;;;;;;;13.90;100.00;99972.23;1783972;80;21072;-77
2021/09/14 00:39:28;;;;;;;20.45;11.15;;;;;;;13.89;100.00;99972.30;1784129;80;21072;-76
2021/09/14 00:41:54;;;;;;;16.95;11.60;;;;;;;13.87;100.00;99973.69;1784088;80;21009;-77
2021/09/14 00:44:20;;;;;;;15.23;11.05;;;;;;;13.84;100.00;99977.84;1784095;80;21464;-77
2021/09/14 00:46:48;;;;;;;17.23;11.33;;;;;;;13.79;100.00;99980.73;1785819;80;21025;-76
2021/09/14 00:49:15;;;;;;;20.72;12.53;;;;;;;13.75;100.00;99979.64;1786034;80;21089;-77
2021/09/14 00:51:42;;;;;;;16.32;11.73;;;;;;;13.72;100.00;99978.50;1786004;80;20986;-76
2021/09/14 00:54:15;;;;;;;19.42;12.90;;;;;;;13.68;100.00;99984.88;1784171;80;21033;-77
2021/09/14 00:56:43;;;;;;;17.00;12.10;;;;;;;13.65;100.00;99984.57;1757425;80;21117;-76
2021/09/14 00:59:10;;;;;;;20.85;11.45;;;;;;;13.62;100.00;99981.62;1753121;81;21588;-77
2021/09/14 01:01:37;;;;;;;17.52;12.05;;;;;;;13.59;100.00;99979.11;1753349;81;21049;-75
2021/09/14 01:04:04;;;;;;;20.85;12.35;;;;;;;13.58;100.00;99984.50;1753046;81;21182;-76
2021/09/14 01:06:33;;;;;;;23.70;10.98;;;;;;;13.56;100.00;99987.22;1769815;80;21088;-78
2021/09/14 01:09:01;;;;;;;19.02;11.48;;;;;;;13.54;100.00;99985.59;1781016;80;21068;-75
2021/09/14 01:11:29;;;;;;;19.73;11.78;;;;;;;13.51;100.00;99989.25;1780801;80;21504;-77
2021/09/14 01:14:06;;;;;;;15.75;11.25;;;;;;;13.50;100.00;99998.11;1780870;80;21028;-77
2021/09/14 01:16:36;;;;;;;20.45;11.12;;;;;;;13.49;100.00;99986.30;1780555;80;21041;-79
2021/09/14 01:19:06;;;;;;;22.10;12.47;;;;;;;13.49;100.00;99990.27;1780896;80;21584;-79
2021/09/14 01:21:32;;;;;;;21.05;11.73;;;;;;;13.48;100.00;99997.36;1780286;80;22176;-77
2021/09/14 01:24:00;;;;;;;16.37;11.30;;;;;;;13.48;100.00;99995.16;1780400;80;21112;-77
2021/09/14 01:26:29;;;;;;;20.77;12.58;;;;;;;13.48;100.00;100000.00;1780721;80;21062;-78
2021/09/14 01:28:56;;;;;;;15.45;10.80;;;;;;;13.47;100.00;100001.39;1780923;80;21053;-77
2021/09/14 01:31:23;;;;;;;18.87;11.48;;;;;;;13.45;100.00;99996.17;1780653;80;21057;-77
2021/09/14 01:33:50;;;;;;;16.07;11.10;;;;;;;13.43;100.00;100002.00;1780926;80;21088;-76
2021/09/14 01:36:19;;;;;;;19.37;10.03;;;;;;;13.42;100.00;100003.80;1780529;80;21652;-76
2021/09/14 01:38:47;;;;;;;18.77;10.98;;;;;;;13.41;100.00;100003.87;1780806;80;21120;-76
2021/09/14 01:41:15;;;;;;;16.00;11.55;;;;;;;13.40;100.00;100006.14;1780764;80;21021;-77
2021/09/14 01:43:42;;;;;;;17.37;10.65;;;;;;;13.39;100.00;100007.08;1781106;79;21112;-77
2021/09/14 01:46:09;;;;;;;14.95;10.48;;;;;;;13.40;100.00;100002.17;1781107;80;21759;-79
2021/09/14 01:48:37;;;;;;;17.57;9.95;;;;;;;13.43;100.00;100008.17;1780964;80;21009;-77
2021/09/14 01:51:04;;;;;;;16.57;11.30;;;;;;;13.47;100.00;100006.21;1781305;80;21643;-76
2021/09/14 01:53:33;;;;;;;13.25;10.45;;;;;;;13.51;100.00;100009.09;1784306;80;20998;-77
2021/09/14 01:56:05;;;;;;;16.60;10.08;;;;;;;13.57;100.00;100007.47;1784068;80;20986;-77
2021/09/14 01:58:33;;;;;;;13.93;10.03;;;;;;;13.60;100.00;100003.80;1781461;80;21120;-77
2021/09/14 02:23:34;;;;;;;15.70;10.80;;;;;;;13.72;100.00;100002.31;1781159;80;21040;-78
2021/09/14 03:00:29;;;;;;;11.85;8.95;;;;;;;13.37;100.00;100036.72;1810783;79;21053;-77
2021/09/14 03:02:56;;;;;;;14.98;9.73;;;;;;;13.35;100.00;100038.58;1725138;82;21513;-78
2021/09/14 03:05:28;;;;;;;14.20;9.63;;;;;;;13.34;100.00;100035.53;1755064;81;21493;-77
2021/09/14 03:07:56;;;;;;;13.68;9.83;;;;;;;13.33;100.00;100048.38;1724786;82;25781;-77
2021/09/14 03:10:23;;;;;;;13.72;9.78;;;;;;;13.31;100.00;100042.30;1755019;81;21116;-78
2021/09/14 03:12:51;;;;;;;17.75;9.83;;;;;;;13.29;100.00;100045.48;1724914;83;21060;-77
2021/09/14 03:15:18;;;;;;;13.28;8.83;;;;;;;13.26;100.00;100044.30;1755586;81;21122;-77
2021/09/14 03:17:44;;;;;;;13.88;9.05;;;;;;;13.23;100.00;100043.52;1725114;83;21532;-77
2021/09/14 03:20:13;;;;;;;12.75;9.45;;;;;;;13.21;100.00;100047.17;1755426;81;20994;-77
2021/09/14 03:22:40;;;;;;;15.43;9.43;;;;;;;13.20;100.00;100051.61;1755255;81;21538;-79
2021/09/14 03:25:10;;;;;;;18.15;10.60;;;;;;;13.18;100.00;100056.55;1755362;81;21022;-78
2021/09/14 03:27:39;;;;;;;12.68;9.08;;;;;;;13.17;100.00;100055.70;1755352;81;21042;-78
2021/09/14 03:30:07;;;;;;;15.35;10.48;;;;;;;13.14;100.00;100057.19;1755526;81;21537;-77
2021/09/14 03:32:35;;;;;;;14.78;10.35;;;;;;;13.12;100.00;100056.41;1755239;81;21509;-79
2021/09/14 03:35:05;;;;;;;14.98;9.78;;;;;;;13.09;100.00;100061.84;1725449;83;21014;-79
2021/09/14 03:37:31;;;;;;;15.10;9.80;;;;;;;13.03;100.00;100063.45;1725241;83;20995;-79
2021/09/14 03:40:00;;;;;;;15.53;9.20;;;;;;;13.01;100.00;100067.95;1725416;83;21671;-79
2021/09/14 03:42:28;;;;;;;14.60;9.88;;;;;;;12.98;100.00;100065.47;1725326;83;21106;-78
2021/09/14 03:44:55;;;;;;;12.35;9.50;;;;;;;12.98;100.00;100076.05;1725729;83;20991;-79
2021/09/14 03:47:23;;;;;;;24.87;10.32;;;;;;;12.95;100.00;100070.88;1733693;82;21036;-79
2021/09/14 03:49:51;;;;;;;28.42;10.20;;;;;;;12.95;100.00;100068.23;1744010;82;21068;-78
2021/09/14 03:52:18;;;;;;;17.17;9.18;;;;;;;12.96;100.00;100069.97;1717236;83;21060;-78
2021/09/14 03:54:44;;;;;;;15.75;9.68;;;;;;;12.96;100.00;100073.94;1743925;82;21104;-76
2021/09/14 03:57:13;;;;;;;15.30;10.43;;;;;;;12.95;100.00;100069.56;1747104;82;21085;-78
2021/09/14 03:59:41;;;;;;;17.73;9.45;;;;;;;12.95;100.00;100072.20;1747445;82;21112;-79
2021/09/14 04:02:23;;;;;;;20.55;10.48;;;;;;;12.94;100.00;100067.86;1746985;82;21524;-78
2021/09/14 04:07:23;;;;;;;21.00;10.20;;;;;;;13.11;100.00;100067.92;1740031;82;21128;-77
2021/09/14 04:09:44;;;;;;;18.95;10.00;;;;;;;13.45;100.00;100071.56;1719179;83;21797;-80
2021/09/14 04:12:14;;;;;;;20.48;8.70;;;;;;;13.82;100.00;100072.34;1733442;82;20995;-80
2021/09/14 04:14:41;;;;;;;20.17;9.55;;;;;;;13.94;100.00;100074.83;1733563;82;21037;-79
2021/09/14 04:17:10;;;;;;;12.98;9.30;;;;;;;13.91;100.00;100081.14;1736384;82;21054;-77
2021/09/14 04:19:38;;;;;;;17.57;9.33;;;;;;;13.91;100.00;100078.97;1735369;82;21083;-77
2021/09/14 04:22:06;;;;;;;15.70;9.63;;;;;;;14.06;100.00;100079.03;1733263;82;21086;-77
2021/09/14 04:24:34;;;;;;;15.00;9.47;;;;;;;14.50;100.00;100090.86;1731900;82;21560;-78
2021/09/14 04:27:03;;;;;;;14.63;9.40;;;;;;;15.03;100.00;100087.55;1732785;82;21010;-79
2021/09/14 04:29:29;;;;;;;17.42;8.98;;;;;;;15.64;100.00;100098.61;1733078;82;21105;-79
2021/09/14 04:31:56;;;;;;;12.70;8.43;;;;;;;16.27;100.00;100108.66;1733027;82;21294;-79
2021/09/14 04:34:24;;;;;;;13.95;9.05;;;;;;;16.79;100.00;100109.42;1732899;82;21024;-78
2021/09/14 04:36:52;;;;;;;13.15;8.23;;;;;;;17.26;100.00;100112.19;1734026;82;21086;-77
2021/09/14 04:39:19;;;;;;;11.28;7.92;;;;;;;17.74;97.51;100109.91;1735641;82;21097;-77
2021/09/14 04:41:47;;;;;;;10.18;7.83;;;;;;;18.00;93.66;100107.31;1736093;82;21047;-77
2021/09/14 04:44:14;;;;;;;11.97;8.33;;;;;;;18.24;91.50;100095.42;1735102;82;21477;-78
2021/09/14 04:46:40;;;;;;;10.90;8.40;;;;;;;18.44;89.76;100102.05;1732890;82;21896;-76
2021/09/14 04:49:09;;;;;;;11.25;7.95;;;;;;;18.62;88.45;100099.41;1732948;82;21078;-79
2021/09/14 04:51:36;;;;;;;14.85;8.60;;;;;;;18.60;87.30;100105.33;1706926;82;21521;-78
2021/09/14 04:54:03;;;;;;;19.27;9.05;;;;;;;18.48;86.40;100102.20;1733786;82;21382;-79
2021/09/14 04:56:29;;;;;;;11.40;8.25;;;;;;;18.34;86.08;100109.84;1724015;82;21134;-79
2021/09/14 04:58:56;;;;;;;10.13;7.50;;;;;;;18.27;86.40;100115.68;1721171;83;21025;-78
2021/09/14 05:01:23;;;;;;;10.23;8.60;;;;;;;18.51;86.15;100115.31;1721355;83;21063;-78
2021/09/14 05:03:50;;;;;;;11.08;7.42;;;;;;;18.96;84.39;100107.70;1733922;82;21069;-78
2021/09/14 05:06:17;;;;;;;9.53;7.80;;;;;;;19.50;82.38;100119.28;1734233;82;21022;-77
2021/09/14 05:08:44;;;;;;;16.70;8.75;;;;;;;20.04;80.41;100112.60;1713333;83;21858;-78
2021/09/14 05:11:13;;;;;;;13.22;8.15;;;;;;;20.49;77.59;100113.14;1717443;83;21081;-78
2021/09/14 05:13:41;;;;;;;13.58;8.33;;;;;;;20.91;76.15;100112.06;1717177;83;21034;-78
2021/09/14 05:16:09;;;;;;;12.18;7.92;;;;;;;21.32;72.61;100115.88;1717244;82;21093;-77
2021/09/14 05:21:46;;;;;;;8.18;7.00;;;;;;;22.16;69.61;100109.33;1795773;79;22599;-80
2021/09/14 05:24:08;;;;;;;12.17;7.23;;;;;;;22.47;68.15;100112.06;1747714;82;21088;-80
2021/09/14 05:26:34;;;;;;;10.08;7.30;;;;;;;22.91;67.19;100108.63;1748398;82;21536;-77
2021/09/14 05:29:01;;;;;;;13.20;7.70;;;;;;;23.38;65.39;100111.61;1749542;82;21109;-79
2021/09/14 05:31:29;;;;;;;9.78;6.50;;;;;;;23.81;62.66;100106.32;1749573;82;21552;-78
2021/09/14 05:33:56;;;;;;;10.85;6.80;;;;;;;24.07;61.61;100107.44;1749465;82;20990;-79
2021/09/14 05:36:23;;;;;;;12.80;5.78;;;;;;;24.43;59.96;100111.67;1748906;82;21044;-79
2021/09/14 05:38:51;;;;;;;10.90;6.10;;;;;;;24.65;57.98;100104.25;1748447;82;21104;-78
2021/09/14 05:41:19;;;;;;;11.50;6.65;;;;;;;24.89;57.30;100116.69;1748145;82;21005;-78
2021/09/14 05:43:46;;;;;;;9.28;6.70;;;;;;;25.22;55.16;100100.92;1748204;82;20993;-78
2021/09/14 05:46:13;;;;;;;9.38;6.20;;;;;;;25.40;54.68;100101.42;1748119;82;21061;-77
2021/09/14 05:48:40;;;;;;;8.55;6.08;;;;;;;25.71;54.07;100108.13;1748190;82;21584;-77
2021/09/14 05:51:08;;;;;;;6.08;5.47;;;;;;;26.07;52.23;100108.63;1748240;82;21090;-78
2021/09/14 05:53:42;;;;;;;8.30;6.10;;;;;;;26.24;50.95;100109.07;1746601;82;21107;-78
2021/09/14 05:56:09;;;;;;;9.03;5.55;;;;;;;26.51;50.20;100109.92;1748080;82;21690;-79
2021/09/14 05:58:36;;;;;;;8.33;5.17;;;;;;;26.71;48.38;100109.19;1747988;82;21295;-77
2021/09/14 06:01:02;;;;;;;7.65;5.35;;;;;;;26.89;48.09;100111.29;1748344;82;21048;-78
2021/09/14 06:03:30;;;;;;;6.30;5.45;;;;;;;27.05;47.93;100113.21;1748204;82;21115;-76
2021/09/14 06:05:57;;;;;;;8.15;5.00;;;;;;;27.30;46.65;100110.10;1748259;82;21041;-77
2021/09/14 06:08:23;;;;;;;8.40;5.65;;;;;;;27.62;45.80;100112.52;1718622;82;21572;-77
2021/09/14 06:10:50;;;;;;;8.25;5.12;;;;;;;27.88;45.28;100109.67;1747898;82;21044;-78
2021/09/14 06:13:19;;;;;;;9.73;5.30;;;;;;;28.05;44.15;100106.98;1748044;82;21567;-77
2021/09/14 06:15:46;;;;;;;8.03;4.83;;;;;;;28.18;43.32;100108.16;1718361;82;21057;-77
2021/09/14 06:18:14;;;;;;;10.00;4.78;;;;;;;28.19;42.87;100107.12;1748460;82;21065;-76
2021/09/14 06:20:42;;;;;;;5.45;4.78;;;;;;;28.48;42.59;100111.14;1748481;81;21711;-77
2021/09/14 06:23:08;;;;;;;8.55;4.55;;;;;;;28.79;41.84;100107.67;1748977;82;21009;-78
2021/09/14 06:25:37;;;;;;;9.23;5.05;;;;;;;29.02;41.20;100101.80;1749215;82;21064;-78
2021/09/14 06:28:05;;;;;;;8.80;4.97;;;;;;;29.37;40.78;100092.80;1748745;82;21181;-77
2021/09/14 06:30:32;;;;;;;11.95;5.78;;;;;;;29.70;39.28;100103.44;1749038;82;21037;-78
2021/09/14 06:32:59;;;;;;;7.72;4.55;;;;;;;29.95;38.87;100093.22;1748513;82;21173;-76
2021/09/14 06:35:25;;;;;;;10.20;4.12;;;;;;;30.15;37.59;100096.27;1749982;81;21014;-78
2021/09/14 06:37:51;;;;;;;4.60;4.00;;;;;;;30.23;37.20;100096.20;1752405;82;21038;-76
2021/09/14 06:40:19;;;;;;;9.05;4.80;;;;;;;30.40;36.82;100096.05;1749254;81;21311;-79
2021/09/14 06:42:45;;;;;;;9.00;3.95;;;;;;;30.62;36.67;100096.97;1748722;81;21013;-77
2021/09/14 06:45:32;;;;;;;7.92;4.90;;;;;;;30.66;35.93;100090.97;1723577;82;21006;-78
2021/09/14 06:48:00;;;;;;;6.25;4.17;;;;;;;30.67;36.13;100089.95;1747768;81;21097;-78
2021/09/14 06:50:27;;;;;;;6.37;3.83;;;;;;;30.66;35.89;100090.97;1748484;82;21093;-77
2021/09/14 06:52:53;;;;;;;6.35;3.87;;;;;;;30.66;35.49;100087.41;1748043;82;21116;-79
2021/09/14 06:55:20;;;;;;;8.68;4.00;;;;;;;30.78;34.91;100091.86;1739926;82;21570;-77
2021/09/14 06:57:48;;;;;;;6.55;3.75;;;;;;;30.78;34.55;100088.61;1718140;83;21572;-78
2021/09/14 07:00:16;;;;;;;4.87;3.40;;;;;;;30.73;35.26;100086.46;1718675;83;21049;-77
2021/09/14 07:02:43;;;;;;;6.62;3.98;;;;;;;30.96;34.34;100092.33;1718508;83;21065;-77
2021/09/14 07:05:12;;;;;;;13.18;3.90;;;;;;;31.02;34.75;100095.66;1718435;83;21097;-78
2021/09/14 07:07:38;;;;;;;7.42;4.10;;;;;;;31.14;34.27;100098.19;1718367;83;21060;-77
2021/09/14 07:10:06;;;;;;;5.85;3.10;;;;;;;31.19;34.72;100106.30;1718843;83;21088;-76
2021/09/14 07:12:34;;;;;;;5.97;2.87;;;;;;;31.44;33.33;100105.45;1718443;83;21010;-78
2021/09/14 07:15:02;;;;;;;5.15;3.22;;;;;;;31.66;32.88;100104.95;1718778;83;21053;-77
2021/09/14 07:17:30;;;;;;;7.12;3.40;;;;;;;32.06;32.01;100108.04;1718599;83;22135;-78
2021/09/14 07:19:57;;;;;;;7.08;3.42;;;;;;;32.28;31.45;100109.68;1717499;83;21085;-77
2021/09/14 07:22:25;;;;;;;5.55;3.10;;;;;;;32.47;31.11;100116.83;1704760;84;21043;-78
2021/09/14 07:24:52;;;;;;;4.42;2.75;;;;;;;32.58;30.54;100116.30;1705094;84;21093;-76
2021/09/14 07:27:18;;;;;;;5.05;3.22;;;;;;;32.56;30.34;100117.02;1704834;84;21063;-78
2021/09/14 07:29:48;;;;;;;7.05;3.20;;;;;;;32.49;30.88;100118.83;1705072;84;21053;-75
2021/09/14 07:32:14;;;;;;;6.05;2.77;;;;;;;32.69;30.95;100117.06;1704773;84;21698;-77
2021/09/14 07:34:40;;;;;;;4.50;2.77;;;;;;;32.91;29.81;100118.34;1704706;84;21093;-78
2021/09/14 07:37:07;;;;;;;8.53;2.67;;;;;;;32.85;29.08;100115.05;1704989;84;21058;-78
2021/09/14 07:39:33;;;;;;;8.83;3.17;;;;;;;32.22;29.35;100118.64;1705317;84;21089;-78
2021/09/14 07:42:00;;;;;;;3.60;2.75;;;;;;;31.94;30.13;100112.63;1705022;84;21026;-77
2021/09/14 07:44:27;;;;;;;6.08;2.67;;;;;;;32.14;30.34;100107.88;1705025;84;21054;-80
2021/09/14 07:46:54;;;;;;;3.40;2.50;;;;;;;32.44;29.40;100115.84;1705249;84;21101;-75
2021/09/14 07:49:21;;;;;;;4.47;2.42;;;;;;;32.44;29.04;100122.66;1704852;84;21568;-77
2021/09/14 07:51:48;;;;;;;5.78;2.87;;;;;;;32.22;29.70;100113.19;1705417;84;21082;-78
2021/09/14 07:54:15;;;;;;;5.37;3.37;;;;;;;32.25;29.69;100114.14;1705018;84;21538;-76
2021/09/14 07:56:42;;;;;;;4.72;2.90;;;;;;;32.57;29.85;100121.41;1730196;82;21018;-78
2021/09/14 07:59:09;;;;;;;6.08;2.60;;;;;;;32.87;29.45;100115.70;1734728;82;21593;-77
2021/09/14 08:01:37;;;;;;;4.47;2.30;;;;;;;33.15;28.65;100111.03;1734323;82;21000;-77
2021/09/14 08:04:04;;;;;;;3.30;2.00;;;;;;;33.40;27.82;100115.91;1734369;82;21010;-78
2021/09/14 08:06:31;;;;;;;6.08;2.30;;;;;;;32.92;27.68;100121.38;1734588;82;21305;-78
2021/09/14 08:08:57;;;;;;;4.22;2.30;;;;;;;32.45;28.17;100118.37;1734222;82;21070;-77
2021/09/14 08:11:24;;;;;;;7.60;2.27;;;;;;;31.88;29.02;100118.84;1734658;82;21109;-76
2021/09/14 08:13:52;;;;;;;4.97;2.10;;;;;;;31.67;29.55;100117.52;1734073;82;21031;-78
2021/09/14 08:16:19;;;;;;;3.75;2.33;;;;;;;31.86;29.64;100118.20;1734617;82;21102;-77
2021/09/14 08:18:46;;;;;;;4.72;1.77;;;;;;;32.34;28.88;100118.40;1734462;82;21574;-78
2021/09/14 08:21:12;;;;;;;16.05;3.02;;;;;;;32.79;27.76;100124.38;1737789;81;21025;-78
2021/09/14 08:23:40;;;;;;;5.15;1.80;;;;;;;33.17;27.23;100125.28;1742246;82;21089;-76
2021/09/14 08:26:07;;;;;;;4.70;1.82;;;;;;;33.32;26.24;100122.94;1742971;82;21054;-79
2021/09/14 08:28:33;;;;;;;6.40;2.12;;;;;;;33.09;26.72;100121.39;1742790;82;21062;-77
2021/09/14 08:31:01;;;;;;;6.33;2.20;;;;;;;32.67;27.36;100115.09;1742619;82;21449;-77
2021/09/14 08:33:28;;;;;;;2.87;2.05;;;;;;;32.38;27.53;100118.86;1742733;82;21143;-77
2021/09/14 08:35:54;;;;;;;3.08;1.82;;;;;;;32.20;28.08;100115.27;1743059;82;21057;-78
2021/09/14 08:38:21;;;;;;;3.42;1.80;;;;;;;32.19;28.13;100113.59;1742639;82;21026;-79
2021/09/14 08:40:47;;;;;;;10.40;2.25;;;;;;;32.30;27.96;100113.05;1742472;82;21100;-78
2021/09/14 08:43:14;;;;;;;4.45;1.87;;;;;;;32.34;27.81;100121.66;1742591;82;21642;-77
2021/09/14 08:45:42;;;;;;;4.42;2.00;;;;;;;32.00;27.77;100120.55;1742856;82;21022;-78
2021/09/14 08:48:09;;;;;;;6.65;2.30;;;;;;;31.64;28.17;100107.02;1742871;82;21022;-77
2021/09/14 08:50:35;;;;;;;4.90;2.55;;;;;;;31.22;29.32;100116.78;1742767;82;21039;-77
2021/09/14 08:53:04;;;;;;;9.03;2.10;;;;;;;31.19;29.38;100119.90;1713633;82;21125;-77
2021/09/14 08:55:30;;;;;;;4.53;1.80;;;;;;;31.22;29.73;100112.70;1732347;82;21101;-77
2021/09/14 08:57:57;;;;;;;6.15;2.00;;;;;;;31.56;29.26;100108.84;1716150;83;21006;-78
2021/09/14 09:00:35;;;;;;;7.28;1.70;;;;;;;31.88;28.07;100113.93;1715863;83;21105;-77
2021/09/14 09:03:02;;;;;;;6.70;1.95;;;;;;;31.71;27.85;100109.28;1713898;83;21600;-77
2021/09/14 09:05:32;;;;;;;4.00;2.15;;;;;;;31.59;28.12;100112.19;1712771;83;21026;-77
2021/09/14 09:08:01;;;;;;;;;;;;;;;31.76;28.61;100109.02;1715841;83;21767;-76
2021/09/14 09:10:33;;;;;;;4.55;1.70;;;;;;;31.61;28.83;100116.42;1712750;83;20177;-77
2021/09/14 09:13:04;;;;;;;3.52;1.60;;;;;;;31.67;27.55;100112.06;1712638;83;21045;-78
2021/09/14 09:15:35;;;;;;;4.25;1.75;;;;;;;31.82;27.35;100108.77;1686022;83;21061;-77
2021/09/14 09:18:07;;;;;;;7.00;1.90;;;;;;;31.90;27.35;100103.16;1713665;83;21627;-77
2021/09/14 09:20:35;;;;;;;;;;;;;;;32.11;27.03;100108.28;1715572;83;21872;-78
2021/09/14 09:23:06;;;;;;;2.90;1.70;;;;;;;32.13;27.26;100098.87;1718454;83;20499;-77
2021/09/14 09:25:34;;;;;;;2.42;1.70;;;;;;;31.95;26.57;100103.94;1718682;83;21049;-77
2021/09/14 09:28:16;;;;;;;3.45;1.80;;;;;;;31.50;27.21;100100.08;1718642;83;21560;-78
2021/09/14 09:30:55;;;;;;;15.72;2.62;;;;;;;31.25;28.10;100094.66;1718119;83;21056;-78
2021/09/14 09:33:27;;;;;;;7.65;2.37;;;;;;;31.42;28.59;100098.84;1718130;83;21202;-76
2021/09/14 09:36:09;;;;;;;3.50;2.20;;;;;;;31.30;28.50;100084.87;1718954;83;21494;-78
2021/09/14 09:38:55;;;;;;;8.53;2.55;;;;;;;31.28;28.39;100088.83;1718604;83;21601;-77
2021/09/14 09:41:19;;;;;;;4.87;2.00;;;;;;;30.57;29.10;100097.53;1719813;83;21549;-77
2021/09/14 09:43:46;;;;;;;6.17;2.50;;;;;;;30.31;30.29;100100.20;1721348;83;21014;-78
2021/09/14 09:46:18;;;;;;;7.80;2.80;;;;;;;29.84;31.30;100099.95;1694967;83;21477;-78
2021/09/14 09:48:42;;;;;;;8.30;2.45;;;;;;;29.69;31.61;100104.48;1682523;85;21025;-79
2021/09/14 09:51:09;;;;;;;4.25;2.10;;;;;;;29.64;31.60;100102.28;1718926;83;21136;-77
2021/09/14 09:53:38;;;;;;;4.40;2.35;;;;;;;29.87;31.65;100094.16;1718510;83;21045;-78
2021/09/14 09:56:06;;;;;;;3.72;2.50;;;;;;;29.94;31.27;100092.91;1736522;82;21228;-79
2021/09/14 09:58:33;;;;;;;5.42;2.80;;;;;;;30.05;31.24;100098.42;1748282;81;21098;-78
2021/09/14 10:01:13;;;;;;;6.00;2.37;;;;;;;29.89;31.36;100102.13;1748107;82;21112;-78
2021/09/14 10:03:58;;;;;;;4.17;2.00;;;;;;;29.81;31.32;100111.16;1748585;82;21037;-78
2021/09/14 10:06:30;;;;;;;6.25;2.00;;;;;;;29.56;31.51;100105.56;1748532;81;21041;-79
2021/09/14 10:08:57;;;;;;;3.50;2.20;;;;;;;29.44;31.56;100105.98;1748958;82;20994;-78
2021/09/14 10:11:29;;;;;;;8.25;2.65;;;;;;;29.68;31.12;100100.09;1748834;81;21061;-78
2021/09/14 10:14:14;;;;;;;8.70;2.55;;;;;;;29.72;31.63;100104.11;1749145;82;21022;-77
2021/09/14 10:16:46;;;;;;;6.05;2.37;;;;;;;29.68;32.09;100105.52;1750257;82;20994;-77
2021/09/14 10:19:29;;;;;;;4.15;2.35;;;;;;;29.64;31.56;100104.16;1751402;81;20990;-79
2021/09/14 10:22:08;;;;;;;5.15;2.22;;;;;;;29.46;31.83;100106.64;1743970;82;21086;-78
2021/09/14 10:24:35;;;;;;;5.33;2.40;;;;;;;29.08;32.14;100113.85;1735807;82;21117;-78
2021/09/14 10:27:13;;;;;;;4.40;2.08;;;;;;;29.25;31.46;100101.03;1734408;82;21039;-78
2021/09/14 10:29:41;;;;;;;3.40;2.10;;;;;;;29.27;31.62;100101.70;1735514;82;21341;-77
2021/09/14 10:32:11;;;;;;;3.95;2.42;;;;;;;29.04;32.22;100110.60;1736055;82;21034;-78
2021/09/14 10:34:44;;;;;;;3.85;2.35;;;;;;;28.93;32.54;100113.70;1734995;82;21069;-77
2021/09/14 10:37:11;;;;;;;6.60;2.42;;;;;;;28.77;32.94;100115.13;1734562;82;21050;-77
2021/09/14 10:39:41;;;;;;;2.75;2.10;;;;;;;28.70;33.09;100115.50;1734365;82;21249;-78
2021/09/14 10:42:19;;;;;;;4.83;2.20;;;;;;;28.50;33.00;100117.75;1734362;82;21485;-77
2021/09/14 10:44:50;;;;;;;3.65;2.40;;;;;;;28.34;33.43;100119.95;1734648;82;21588;-79
2021/09/14 10:47:19;;;;;;;5.05;2.30;;;;;;;28.35;34.01;100113.54;1734684;82;27470;-78
2021/09/14 10:49:52;;;;;;;4.72;2.58;;;;;;;28.51;33.66;100104.56;1734672;82;21152;-78
2021/09/14 10:52:39;;;;;;;3.90;2.42;;;;;;;28.88;33.40;100102.55;1734401;82;21026;-78
2021/09/14 10:55:17;;;;;;;3.75;2.30;;;;;;;29.24;32.45;100097.97;1728669;82;21552;-78
2021/09/14 10:57:46;;;;;;;3.95;2.33;;;;;;;29.26;32.70;100106.77;1704937;84;21137;-78
2021/09/14 11:00:19;;;;;;;5.62;2.35;;;;;;;29.13;32.53;100101.11;1705198;84;21738;-77
2021/09/14 11:02:56;;;;;;;3.95;2.50;;;;;;;28.87;32.96;100102.20;1704952;84;21584;-78
2021/09/14 11:05:29;;;;;;;3.47;2.35;;;;;;;28.60;33.57;100112.48;1705473;84;21061;-80
2021/09/14 11:08:04;;;;;;;4.12;2.15;;;;;;;28.41;34.03;100103.34;1705012;83;21065;-79
2021/09/14 11:10:41;;;;;;;3.80;2.25;;;;;;;28.47;34.32;100101.34;1705180;84;21097;-79
2021/09/14 11:13:22;;;;;;;4.45;2.30;;;;;;;28.65;34.24;100101.96;1704912;84;21122;-79
2021/09/14 11:16:04;;;;;;;3.05;2.20;;;;;;;28.69;33.68;100098.89;1705443;84;21190;-78
2021/09/14 11:18:34;;;;;;;3.20;2.67;;;;;;;28.53;32.90;100102.50;1706300;83;20971;-77
2021/09/14 11:21:07;;;;;;;4.85;2.62;;;;;;;28.48;33.68;100092.19;1688390;84;21007;-78
2021/09/14 11:23:37;;;;;;;5.00;2.90;;;;;;;28.62;32.87;100103.67;1706453;84;20995;-77
2021/09/14 11:26:06;;;;;;;7.78;2.20;;;;;;;28.71;32.61;100096.85;1705852;83;21046;-77
2021/09/14 11:28:35;;;;;;;3.55;2.47;;;;;;;28.76;32.28;100090.39;1705687;84;21127;-77
2021/09/14 11:31:05;;;;;;;7.10;2.40;;;;;;;28.75;32.11;100094.13;1705462;84;21065;-78
2021/09/14 11:33:32;;;;;;;3.37;2.10;;;;;;;28.85;32.56;100088.01;1705404;84;21030;-78
2021/09/14 11:36:00;;;;;;;18.92;2.92;;;;;;;28.84;32.69;100091.72;1705060;84;21057;-79
2021/09/14 11:38:28;;;;;;;4.27;2.40;;;;;;;28.76;32.89;100093.10;1705144;84;21066;-78
2021/09/14 11:41:00;;;;;;;4.62;2.20;;;;;;;28.74;32.87;100093.81;1704841;84;21053;-76
2021/09/14 11:43:34;;;;;;;;;;;;;;;28.48;32.55;100085.41;1707567;84;21069;-78
2021/09/14 11:46:16;;;;;;;2.72;1.77;;;;;;;28.16;32.76;100092.59;1705166;84;20162;-78
2021/09/14 11:48:58;;;;;;;3.17;1.80;;;;;;;27.71;33.29;100096.64;1705027;84;21533;-77
2021/09/14 11:51:30;;;;;;;6.35;2.25;;;;;;;27.38;34.08;100096.61;1704998;84;22094;-77
2021/09/14 11:53:58;;;;;;;5.37;2.40;;;;;;;26.91;35.07;100101.17;1683318;84;21071;-78
2021/09/14 11:56:27;;;;;;;5.08;2.30;;;;;;;26.58;35.59;100095.64;1726645;82;21053;-78
2021/09/14 11:58:54;;;;;;;3.10;2.42;;;;;;;26.29;36.25;100102.69;1734357;82;21565;-78
2021/09/14 12:01:26;;;;;;;3.37;2.30;;;;;;;26.20;36.68;100100.94;1708960;82;21702;-77
2021/09/14 12:03:54;;;;;;;6.55;3.08;;;;;;;26.13;37.06;100096.67;1689248;84;23075;-78
2021/09/14 12:06:33;;;;;;;8.60;4.08;;;;;;;26.10;37.15;100091.61;1690130;84;22163;-77
2021/09/14 12:09:08;;;;;;;4.70;3.08;;;;;;;26.08;37.48;100096.31;1690253;84;21178;-77
2021/09/14 12:11:34;;;;;;;11.33;2.70;;;;;;;26.13;37.52;100091.28;1690161;83;21125;-79
2021/09/14 12:14:06;;;;;;;6.20;2.70;;;;;;;26.20;37.42;100086.61;1690412;84;21609;-79
2021/09/14 12:16:42;;;;;;;7.60;2.77;;;;;;;26.31;37.27;100084.98;1690358;83;21018;-79
2021/09/14 12:19:07;;;;;;;2.87;2.55;;;;;;;26.35;37.41;100089.07;1669079;84;21148;-78
2021/09/14 12:21:36;;;;;;;5.12;2.08;;;;;;;26.30;37.51;100091.41;1690710;82;21131;-78
2021/09/14 12:24:04;;;;;;;2.87;2.00;;;;;;;26.37;37.44;100089.77;1690122;83;21620;-79
2021/09/14 12:26:39;;;;;;;5.47;2.15;;;;;;;26.46;37.33;100088.80;1690406;84;21080;-78
2021/09/14 12:29:09;;;;;;;5.72;2.42;;;;;;;26.44;37.12;100084.06;1690328;83;21065;-77